createdAt,value
2017-06-26T00:10:57.535Z,17.82
2017-06-26T00:50:57.558Z,17.51
2017-06-26T01:10:57.564Z,17.5
2017-06-26T01:50:57.571Z,17.7
2017-06-26T02:20:57.580Z,17.64
2017-06-26T02:31:14.442Z,17.64
2017-06-26T02:50:57.584Z,17.69
2017-06-26T03:10:57.588Z,17.08
2017-06-26T04:50:57.598Z,17.51
2017-06-26T05:10:57.590Z,18.86
2017-06-26T05:50:57.581Z,19.54
2017-06-26T06:10:57.592Z,20.49
2017-06-26T06:50:57.595Z,20.9
2017-06-26T07:10:57.596Z,20.34
2017-06-26T07:20:57.685Z,21.71
2017-06-26T07:30:57.605Z,22.49
2017-06-26T07:40:57.687Z,22.38
2017-06-26T07:50:57.681Z,22.41
2017-06-26T08:00:57.596Z,21.67
2017-06-26T08:10:57.602Z,22.53
2017-06-26T08:20:57.617Z,23.77
2017-06-26T08:30:57.606Z,26.36
2017-06-26T08:40:57.620Z,26.98
2017-06-26T08:50:57.614Z,29.56
2017-06-26T09:00:57.624Z,27.23
2017-06-26T09:10:57.618Z,27.23
2017-06-26T09:20:57.875Z,24.45
2017-06-26T09:30:57.753Z,23.75
2017-06-26T09:40:57.765Z,22.6
2017-06-26T09:50:57.615Z,22.23
2017-06-26T10:00:57.665Z,21.94
2017-06-26T10:10:57.638Z,22.43
2017-06-26T10:20:57.660Z,22.5
2017-06-26T10:30:58.183Z,22.74
2017-06-26T10:40:57.674Z,22.46
2017-06-26T10:50:57.667Z,22.94
2017-06-26T11:00:58.437Z,23.24
2017-06-26T11:10:58.114Z,23.52
2017-06-26T11:30:57.743Z,23.92
2017-06-26T11:40:57.693Z,24.23
2017-06-26T11:50:57.754Z,23.71
2017-06-26T12:00:57.705Z,23.71
2017-06-26T12:10:58.099Z,23.97
2017-06-26T12:20:57.737Z,23.75
2017-06-26T12:30:57.663Z,23.43
2017-06-26T12:40:57.744Z,23.39
2017-06-26T12:50:57.879Z,23.82
2017-06-26T13:00:58.067Z,24.24
2017-06-26T13:10:57.739Z,24.95
2017-06-26T13:20:57.746Z,24.22
2017-06-26T13:30:58.674Z,23.85
2017-06-26T13:40:57.731Z,23.85
2017-06-26T13:50:57.760Z,24.2
2017-06-26T14:00:57.746Z,24.1
2017-06-26T14:10:58.006Z,24.69
2017-06-26T14:20:57.823Z,24.94
2017-06-26T14:30:57.739Z,24.68
2017-06-26T14:40:57.786Z,24.08
2017-06-26T14:50:57.773Z,23.34
2017-06-26T15:00:58.393Z,23.71
2017-06-26T15:10:58.438Z,23.64
2017-06-26T15:20:58.717Z,23.65
2017-06-26T15:30:57.708Z,23.65
2017-06-26T15:40:57.753Z,23.68
2017-06-26T15:50:57.745Z,23.86
2017-06-26T16:00:59.430Z,23.19
2017-06-26T16:10:57.725Z,23.29
2017-06-26T16:20:57.785Z,23.14
2017-06-26T16:30:57.802Z,23.07
2017-06-26T16:40:57.738Z,23.15
2017-06-26T16:50:57.713Z,22.96
2017-06-26T17:00:57.726Z,23.02
2017-06-26T17:10:57.722Z,22.87
2017-06-26T17:20:57.719Z,22.62
2017-06-26T17:30:57.728Z,22.49
2017-06-26T17:40:57.719Z,22.32
2017-06-26T17:50:57.707Z,22.12
2017-06-26T18:00:57.758Z,21.94
2017-06-26T18:11:03.882Z,21.83
2017-06-26T18:21:02.814Z,21.54
2017-06-26T18:30:57.716Z,21.2
2017-06-26T19:01:10.728Z,20.28
2017-06-26T19:20:58.800Z,19.65
2017-06-26T19:31:01.738Z,19.32
2017-06-26T19:40:58.014Z,18.92
2017-06-26T19:50:58.796Z,18.64
2017-06-26T20:00:58.839Z,18.36
2017-06-26T20:11:01.379Z,18.04
2017-06-26T20:21:07.609Z,17.55
2017-06-26T20:31:01.623Z,17.22
2017-06-26T20:40:57.750Z,17.04
2017-06-26T20:50:58.831Z,16.77
2017-06-26T21:00:57.780Z,16.49
2017-06-26T21:10:58.841Z,16.18
2017-06-26T21:20:57.824Z,16.11
2017-06-26T21:30:58.062Z,15.82
2017-06-26T21:40:57.813Z,15.48
2017-06-26T21:50:57.778Z,15.38
2017-06-26T22:00:57.917Z,15.01
2017-06-26T22:10:57.824Z,14.9
2017-06-26T22:21:07.550Z,14.72
2017-06-26T22:30:57.815Z,14.54
2017-06-26T22:40:57.820Z,14.5
2017-06-26T22:50:57.923Z,14.34
2017-06-26T23:00:57.803Z,14.1
2017-06-26T23:10:57.751Z,14.1
2017-06-26T23:20:57.837Z,13.88
2017-06-26T23:30:57.793Z,13.56
2017-06-26T23:40:57.759Z,13.32
2017-06-26T23:50:57.811Z,13.32
